sensor_id;sensor_type;location;lat;lon;timestamp;temperature;humidity
66422;DHT22;53228;51.380;0.098;2023-11-22T00:00:08;6.00;99.90
66422;DHT22;53228;51.380;0.098;2023-11-22T00:02:37;6.00;99.90
66422;DHT22;53228;51.380;0.098;2023-11-22T00:05:05;7.60;99.90
66422;DHT22;53228;51.380;0.098;2023-11-22T00:07:34;6.00;99.90
66422;DHT22;53228;51.380;0.098;2023-11-22T00:10:01;6.10;99.90
66422;DHT22;53228;51.380;0.098;2023-11-22T00:12:31;6.00;99.90
66422;DHT22;53228;51.380;0.098;2023-11-22T00:15:05;6.10;99.90
66422;DHT22;53228;51.380;0.098;2023-11-22T00:17:34;6.10;99.90
66422;DHT22;53228;51.380;0.098;2023-11-22T00:20:02;6.10;99.90
66422;DHT22;53228;51.380;0.098;2023-11-22T00:22:34;6.10;99.90
66422;DHT22;53228;51.380;0.098;2023-11-22T00:25:01;6.10;99.90
66422;DHT22;53228;51.380;0.098;2023-11-22T00:27:30;6.20;99.90
66422;DHT22;53228;51.380;0.098;2023-11-22T00:30:01;6.20;99.90
66422;DHT22;53228;51.380;0.098;2023-11-22T00:32:29;4.80;99.90
66422;DHT22;53228;51.380;0.098;2023-11-22T00:34:57;4.70;99.90
66422;DHT22;53228;51.380;0.098;2023-11-22T00:37:25;6.20;99.90
66422;DHT22;53228;51.380;0.098;2023-11-22T00:39:52;6.20;99.90
66422;DHT22;53228;51.380;0.098;2023-11-22T00:42:20;6.20;99.90
66422;DHT22;53228;51.380;0.098;2023-11-22T00:44:48;6.20;99.90
66422;DHT22;53228;51.380;0.098;2023-11-22T00:47:15;6.20;99.90
66422;DHT22;53228;51.380;0.098;2023-11-22T00:49:44;4.20;99.90
66422;DHT22;53228;51.380;0.098;2023-11-22T00:52:12;8.40;99.90
66422;DHT22;53228;51.380;0.098;2023-11-22T00:54:40;6.30;99.90
66422;DHT22;53228;51.380;0.098;2023-11-22T00:57:08;6.20;99.90
66422;DHT22;53228;51.380;0.098;2023-11-22T00:59:36;6.30;99.90
66422;DHT22;53228;51.380;0.098;2023-11-22T01:02:03;6.20;99.90
66422;DHT22;53228;51.380;0.098;2023-11-22T01:04:33;6.20;99.90
66422;DHT22;53228;51.380;0.098;2023-11-22T01:07:03;6.30;99.90
66422;DHT22;53228;51.380;0.098;2023-11-22T01:09:35;6.30;99.90
66422;DHT22;53228;51.380;0.098;2023-11-22T01:12:02;6.20;99.90
66422;DHT22;53228;51.380;0.098;2023-11-22T01:14:30;6.30;99.90
66422;DHT22;53228;51.380;0.098;2023-11-22T01:16:58;6.30;99.90
66422;DHT22;53228;51.380;0.098;2023-11-22T01:19:25;6.30;99.90
66422;DHT22;53228;51.380;0.098;2023-11-22T01:21:54;6.30;99.90
66422;DHT22;53228;51.380;0.098;2023-11-22T01:24:22;6.30;99.90
66422;DHT22;53228;51.380;0.098;2023-11-22T01:26:50;6.30;99.90
66422;DHT22;53228;51.380;0.098;2023-11-22T01:29:17;6.30;99.90
66422;DHT22;53228;51.380;0.098;2023-11-22T01:31:45;6.30;99.90
66422;DHT22;53228;51.380;0.098;2023-11-22T01:36:44;6.30;99.90
66422;DHT22;53228;51.380;0.098;2023-11-22T01:39:12;6.30;99.90
66422;DHT22;53228;51.380;0.098;2023-11-22T01:41:45;6.30;99.90
66422;DHT22;53228;51.380;0.098;2023-11-22T01:44:13;6.40;99.90
66422;DHT22;53228;51.380;0.098;2023-11-22T01:46:42;6.30;99.90
66422;DHT22;53228;51.380;0.098;2023-11-22T01:49:10;6.40;99.90
66422;DHT22;53228;51.380;0.098;2023-11-22T01:51:38;6.30;99.90
66422;DHT22;53228;51.380;0.098;2023-11-22T01:54:08;6.40;99.90
66422;DHT22;53228;51.380;0.098;2023-11-22T01:56:37;6.40;99.90
66422;DHT22;53228;51.380;0.098;2023-11-22T01:59:07;7.30;99.90
66422;DHT22;53228;51.380;0.098;2023-11-22T02:01:35;6.30;99.90
66422;DHT22;53228;51.380;0.098;2023-11-22T02:04:03;6.40;99.90
66422;DHT22;53228;51.380;0.098;2023-11-22T02:06:31;6.40;99.90
66422;DHT22;53228;51.380;0.098;2023-11-22T02:08:59;6.40;99.90
66422;DHT22;53228;51.380;0.098;2023-11-22T02:11:27;5.60;99.90
66422;DHT22;53228;51.380;0.098;2023-11-22T02:13:55;6.40;99.90
66422;DHT22;53228;51.380;0.098;2023-11-22T02:16:23;6.50;99.90
66422;DHT22;53228;51.380;0.098;2023-11-22T02:18:51;6.50;99.90
66422;DHT22;53228;51.380;0.098;2023-11-22T02:21:19;6.50;99.90
66422;DHT22;53228;51.380;0.098;2023-11-22T02:23:49;6.50;99.90
66422;DHT22;53228;51.380;0.098;2023-11-22T02:26:17;6.50;99.90
66422;DHT22;53228;51.380;0.098;2023-11-22T02:28:47;6.50;99.90
66422;DHT22;53228;51.380;0.098;2023-11-22T02:31:16;6.60;99.90
66422;DHT22;53228;51.380;0.098;2023-11-22T02:33:45;6.70;99.90
66422;DHT22;53228;51.380;0.098;2023-11-22T02:36:13;6.60;99.90
66422;DHT22;53228;51.380;0.098;2023-11-22T02:38:40;6.60;99.90
66422;DHT22;53228;51.380;0.098;2023-11-22T02:41:08;6.60;99.90
66422;DHT22;53228;51.380;0.098;2023-11-22T02:43:36;6.60;99.90
66422;DHT22;53228;51.380;0.098;2023-11-22T02:46:04;6.70;99.90
66422;DHT22;53228;51.380;0.098;2023-11-22T02:48:32;6.70;99.90
66422;DHT22;53228;51.380;0.098;2023-11-22T02:51:00;6.70;99.90
66422;DHT22;53228;51.380;0.098;2023-11-22T02:53:28;6.70;99.90
66422;DHT22;53228;51.380;0.098;2023-11-22T02:56:00;6.70;99.90
66422;DHT22;53228;51.380;0.098;2023-11-22T02:58:29;6.80;99.90
66422;DHT22;53228;51.380;0.098;2023-11-22T03:00:58;6.70;99.90
66422;DHT22;53228;51.380;0.098;2023-11-22T03:03:26;6.70;99.90
66422;DHT22;53228;51.380;0.098;2023-11-22T03:05:54;6.70;99.90
66422;DHT22;53228;51.380;0.098;2023-11-22T03:08:22;6.80;99.90
66422;DHT22;53228;51.380;0.098;2023-11-22T03:10:52;8.30;99.90
66422;DHT22;53228;51.380;0.098;2023-11-22T03:13:20;6.70;99.90
66422;DHT22;53228;51.380;0.098;2023-11-22T03:15:49;4.50;99.90
66422;DHT22;53228;51.380;0.098;2023-11-22T03:18:16;9.20;99.90
66422;DHT22;53228;51.380;0.098;2023-11-22T03:20:44;6.90;99.90
66422;DHT22;53228;51.380;0.098;2023-11-22T03:23:12;6.80;99.90
66422;DHT22;53228;51.380;0.098;2023-11-22T03:25:39;6.90;99.90
66422;DHT22;53228;51.380;0.098;2023-11-22T03:28:07;6.90;99.90
66422;DHT22;53228;51.380;0.098;2023-11-22T03:30:35;6.90;99.90
66422;DHT22;53228;51.380;0.098;2023-11-22T03:33:03;6.90;99.90
66422;DHT22;53228;51.380;0.098;2023-11-22T03:35:31;6.90;99.90
66422;DHT22;53228;51.380;0.098;2023-11-22T03:37:59;6.90;99.90
66422;DHT22;53228;51.380;0.098;2023-11-22T03:40:27;6.90;99.90
66422;DHT22;53228;51.380;0.098;2023-11-22T03:42:54;6.90;99.90
66422;DHT22;53228;51.380;0.098;2023-11-22T03:45:22;6.90;99.90
66422;DHT22;53228;51.380;0.098;2023-11-22T03:47:50;7.00;99.90
66422;DHT22;53228;51.380;0.098;2023-11-22T03:50:17;6.90;99.90
66422;DHT22;53228;51.380;0.098;2023-11-22T03:52:46;6.90;99.90
66422;DHT22;53228;51.380;0.098;2023-11-22T03:55:14;6.90;99.90
66422;DHT22;53228;51.380;0.098;2023-11-22T03:57:42;6.90;99.90
66422;DHT22;53228;51.380;0.098;2023-11-22T04:00:10;6.90;99.90
66422;DHT22;53228;51.380;0.098;2023-11-22T04:02:39;6.90;99.90
66422;DHT22;53228;51.380;0.098;2023-11-22T04:05:07;6.90;99.90
66422;DHT22;53228;51.380;0.098;2023-11-22T04:07:35;6.90;99.90
66422;DHT22;53228;51.380;0.098;2023-11-22T04:10:05;6.90;99.90
66422;DHT22;53228;51.380;0.098;2023-11-22T04:12:33;6.90;99.90
66422;DHT22;53228;51.380;0.098;2023-11-22T04:15:04;6.90;99.90
66422;DHT22;53228;51.380;0.098;2023-11-22T04:17:36;6.90;99.90
66422;DHT22;53228;51.380;0.098;2023-11-22T04:20:08;6.90;99.90
66422;DHT22;53228;51.380;0.098;2023-11-22T04:22:37;6.90;99.90
66422;DHT22;53228;51.380;0.098;2023-11-22T04:25:06;6.90;99.90
66422;DHT22;53228;51.380;0.098;2023-11-22T04:27:34;6.80;99.90
66422;DHT22;53228;51.380;0.098;2023-11-22T04:30:01;6.90;99.90
66422;DHT22;53228;51.380;0.098;2023-11-22T04:32:29;6.80;99.90
66422;DHT22;53228;51.380;0.098;2023-11-22T04:34:57;5.70;99.90
66422;DHT22;53228;51.380;0.098;2023-11-22T04:37:26;4.40;99.90
66422;DHT22;53228;51.380;0.098;2023-11-22T04:39:54;4.70;99.90
66422;DHT22;53228;51.380;0.098;2023-11-22T04:44:50;8.80;99.90
66422;DHT22;53228;51.380;0.098;2023-11-22T04:47:24;6.70;99.90
66422;DHT22;53228;51.380;0.098;2023-11-22T04:49:52;6.70;99.90
66422;DHT22;53228;51.380;0.098;2023-11-22T04:52:20;8.90;99.90
66422;DHT22;53228;51.380;0.098;2023-11-22T04:54:48;6.60;99.90
66422;DHT22;53228;51.380;0.098;2023-11-22T04:59:45;7.70;99.90
66422;DHT22;53228;51.380;0.098;2023-11-22T05:02:12;6.50;99.90
66422;DHT22;53228;51.380;0.098;2023-11-22T05:04:40;6.50;99.90
66422;DHT22;53228;51.380;0.098;2023-11-22T05:07:09;6.50;99.90
66422;DHT22;53228;51.380;0.098;2023-11-22T05:09:37;6.30;99.90
66422;DHT22;53228;51.380;0.098;2023-11-22T05:12:05;6.50;99.90
66422;DHT22;53228;51.380;0.098;2023-11-22T05:14:33;6.40;99.90
66422;DHT22;53228;51.380;0.098;2023-11-22T05:17:00;6.40;99.90
66422;DHT22;53228;51.380;0.098;2023-11-22T05:19:28;6.40;99.90
66422;DHT22;53228;51.380;0.098;2023-11-22T05:21:55;6.40;99.90
66422;DHT22;53228;51.380;0.098;2023-11-22T05:24:23;6.40;99.90
66422;DHT22;53228;51.380;0.098;2023-11-22T05:26:51;6.40;99.90
66422;DHT22;53228;51.380;0.098;2023-11-22T05:29:19;6.30;99.90
66422;DHT22;53228;51.380;0.098;2023-11-22T05:31:47;6.50;99.90
66422;DHT22;53228;51.380;0.098;2023-11-22T05:34:14;6.50;99.90
66422;DHT22;53228;51.380;0.098;2023-11-22T05:36:42;6.50;99.90
66422;DHT22;53228;51.380;0.098;2023-11-22T05:39:09;6.60;99.90
66422;DHT22;53228;51.380;0.098;2023-11-22T05:41:39;6.60;99.90
66422;DHT22;53228;51.380;0.098;2023-11-22T05:44:07;6.60;99.90
66422;DHT22;53228;51.380;0.098;2023-11-22T05:46:35;6.60;99.90
66422;DHT22;53228;51.380;0.098;2023-11-22T05:49:03;6.70;99.90
66422;DHT22;53228;51.380;0.098;2023-11-22T05:51:32;8.40;99.90
66422;DHT22;53228;51.380;0.098;2023-11-22T05:54:01;6.70;99.90
66422;DHT22;53228;51.380;0.098;2023-11-22T05:56:28;6.70;99.90
66422;DHT22;53228;51.380;0.098;2023-11-22T05:58:57;6.80;99.90
66422;DHT22;53228;51.380;0.098;2023-11-22T06:01:25;6.30;99.90
66422;DHT22;53228;51.380;0.098;2023-11-22T06:03:54;6.90;99.90
66422;DHT22;53228;51.380;0.098;2023-11-22T06:06:22;6.90;99.90
66422;DHT22;53228;51.380;0.098;2023-11-22T06:08:50;6.90;99.90
66422;DHT22;53228;51.380;0.098;2023-11-22T06:11:18;7.00;99.90
66422;DHT22;53228;51.380;0.098;2023-11-22T06:13:47;7.10;99.90
66422;DHT22;53228;51.380;0.098;2023-11-22T06:16:14;6.90;99.90
66422;DHT22;53228;51.380;0.098;2023-11-22T06:18:42;7.10;99.90
66422;DHT22;53228;51.380;0.098;2023-11-22T06:21:11;9.40;99.90
66422;DHT22;53228;51.380;0.098;2023-11-22T06:23:39;7.10;99.90
66422;DHT22;53228;51.380;0.098;2023-11-22T06:26:07;7.20;99.90
66422;DHT22;53228;51.380;0.098;2023-11-22T06:28:35;7.20;99.90
66422;DHT22;53228;51.380;0.098;2023-11-22T06:31:02;7.10;99.90
66422;DHT22;53228;51.380;0.098;2023-11-22T06:33:33;7.30;99.90
66422;DHT22;53228;51.380;0.098;2023-11-22T06:36:01;7.30;99.90
66422;DHT22;53228;51.380;0.098;2023-11-22T06:38:31;7.30;99.90
66422;DHT22;53228;51.380;0.098;2023-11-22T06:40:59;7.30;99.90
66422;DHT22;53228;51.380;0.098;2023-11-22T06:43:27;7.30;99.90
66422;DHT22;53228;51.380;0.098;2023-11-22T06:45:54;7.10;99.90
66422;DHT22;53228;51.380;0.098;2023-11-22T06:48:25;7.40;99.90
66422;DHT22;53228;51.380;0.098;2023-11-22T06:50:53;7.30;99.90
66422;DHT22;53228;51.380;0.098;2023-11-22T06:53:20;7.40;99.90
66422;DHT22;53228;51.380;0.098;2023-11-22T06:55:48;7.40;99.90
66422;DHT22;53228;51.380;0.098;2023-11-22T06:58:16;7.40;99.90
66422;DHT22;53228;51.380;0.098;2023-11-22T07:00:45;7.40;99.90
66422;DHT22;53228;51.380;0.098;2023-11-22T07:03:13;7.40;99.90
66422;DHT22;53228;51.380;0.098;2023-11-22T07:05:43;6.40;99.90
66422;DHT22;53228;51.380;0.098;2023-11-22T07:08:11;7.40;99.90
66422;DHT22;53228;51.380;0.098;2023-11-22T07:10:39;7.40;99.90
66422;DHT22;53228;51.380;0.098;2023-11-22T07:13:07;7.50;99.90
66422;DHT22;53228;51.380;0.098;2023-11-22T07:15:36;7.50;99.90
66422;DHT22;53228;51.380;0.098;2023-11-22T07:18:04;7.50;99.90
66422;DHT22;53228;51.380;0.098;2023-11-22T07:20:32;7.50;99.90
66422;DHT22;53228;51.380;0.098;2023-11-22T07:23:03;7.40;99.90
66422;DHT22;53228;51.380;0.098;2023-11-22T07:25:34;7.50;99.90
66422;DHT22;53228;51.380;0.098;2023-11-22T07:28:02;9.80;99.90
66422;DHT22;53228;51.380;0.098;2023-11-22T07:30:30;5.80;99.90
66422;DHT22;53228;51.380;0.098;2023-11-22T07:33:00;7.50;99.90
66422;DHT22;53228;51.380;0.098;2023-11-22T07:35:28;7.70;99.90
66422;DHT22;53228;51.380;0.098;2023-11-22T07:37:56;7.50;99.90
66422;DHT22;53228;51.380;0.098;2023-11-22T07:40:25;7.40;99.90
66422;DHT22;53228;51.380;0.098;2023-11-22T07:42:52;7.40;99.90
66422;DHT22;53228;51.380;0.098;2023-11-22T07:45:22;7.40;99.90
66422;DHT22;53228;51.380;0.098;2023-11-22T07:47:50;7.40;99.90
66422;DHT22;53228;51.380;0.098;2023-11-22T07:50:20;7.40;99.90
66422;DHT22;53228;51.380;0.098;2023-11-22T07:52:49;7.40;99.90
66422;DHT22;53228;51.380;0.098;2023-11-22T07:55:17;7.40;99.90
66422;DHT22;53228;51.380;0.098;2023-11-22T07:57:49;7.40;99.90
66422;DHT22;53228;51.380;0.098;2023-11-22T08:00:18;7.40;99.90
66422;DHT22;53228;51.380;0.098;2023-11-22T08:02:50;7.40;99.90
66422;DHT22;53228;51.380;0.098;2023-11-22T08:05:20;7.40;99.90
66422;DHT22;53228;51.380;0.098;2023-11-22T08:07:51;7.50;99.90
66422;DHT22;53228;51.380;0.098;2023-11-22T08:10:19;7.50;99.90
66422;DHT22;53228;51.380;0.098;2023-11-22T08:12:48;7.50;99.90
66422;DHT22;53228;51.380;0.098;2023-11-22T08:15:17;7.60;99.90
66422;DHT22;53228;51.380;0.098;2023-11-22T08:17:47;7.70;99.90
66422;DHT22;53228;51.380;0.098;2023-11-22T08:20:16;7.70;99.90
66422;DHT22;53228;51.380;0.098;2023-11-22T08:22:46;7.80;99.90
66422;DHT22;53228;51.380;0.098;2023-11-22T08:25:17;8.30;99.90
66422;DHT22;53228;51.380;0.098;2023-11-22T08:27:44;7.90;99.90
66422;DHT22;53228;51.380;0.098;2023-11-22T08:30:12;8.00;99.90
66422;DHT22;53228;51.380;0.098;2023-11-22T08:32:44;8.00;99.90
66422;DHT22;53228;51.380;0.098;2023-11-22T08:35:15;8.00;99.90
66422;DHT22;53228;51.380;0.098;2023-11-22T08:37:44;8.00;99.90
66422;DHT22;53228;51.380;0.098;2023-11-22T08:40:11;8.10;99.90
66422;DHT22;53228;51.380;0.098;2023-11-22T08:42:41;6.80;99.90
66422;DHT22;53228;51.380;0.098;2023-11-22T08:45:11;8.30;99.90
66422;DHT22;53228;51.380;0.098;2023-11-22T08:47:40;9.00;99.90
66422;DHT22;53228;51.380;0.098;2023-11-22T08:50:09;8.50;99.90
66422;DHT22;53228;51.380;0.098;2023-11-22T08:52:39;8.10;99.90
66422;DHT22;53228;51.380;0.098;2023-11-22T08:55:09;8.60;99.90
66422;DHT22;53228;51.380;0.098;2023-11-22T08:57:37;8.70;99.90
66422;DHT22;53228;51.380;0.098;2023-11-22T09:00:06;8.70;99.90
66422;DHT22;53228;51.380;0.098;2023-11-22T09:02:37;8.80;99.90
66422;DHT22;53228;51.380;0.098;2023-11-22T09:05:05;8.80;99.90
66422;DHT22;53228;51.380;0.098;2023-11-22T09:07:36;8.90;99.90
66422;DHT22;53228;51.380;0.098;2023-11-22T09:10:05;8.90;99.90
66422;DHT22;53228;51.380;0.098;2023-11-22T09:12:42;9.00;99.90
66422;DHT22;53228;51.380;0.098;2023-11-22T09:15:12;9.00;99.90
66422;DHT22;53228;51.380;0.098;2023-11-22T09:17:43;9.10;99.90
66422;DHT22;53228;51.380;0.098;2023-11-22T09:20:12;9.10;99.90
66422;DHT22;53228;51.380;0.098;2023-11-22T09:22:51;9.20;99.90
66422;DHT22;53228;51.380;0.098;2023-11-22T09:25:25;9.30;99.90
66422;DHT22;53228;51.380;0.098;2023-11-22T09:27:55;9.40;99.90
66422;DHT22;53228;51.380;0.098;2023-11-22T09:30:28;9.40;99.90
66422;DHT22;53228;51.380;0.098;2023-11-22T09:33:14;9.50;99.90
66422;DHT22;53228;51.380;0.098;2023-11-22T09:35:44;9.50;99.90
66422;DHT22;53228;51.380;0.098;2023-11-22T09:38:13;9.50;99.90
66422;DHT22;53228;51.380;0.098;2023-11-22T09:40:43;9.50;99.90
66422;DHT22;53228;51.380;0.098;2023-11-22T09:43:12;9.50;99.90
66422;DHT22;53228;51.380;0.098;2023-11-22T09:45:44;9.50;99.90
66422;DHT22;53228;51.380;0.098;2023-11-22T09:48:16;9.50;99.90
66422;DHT22;53228;51.380;0.098;2023-11-22T09:53:22;9.50;99.90
66422;DHT22;53228;51.380;0.098;2023-11-22T09:55:50;9.40;99.90
66422;DHT22;53228;51.380;0.098;2023-11-22T09:58:18;9.40;99.90
66422;DHT22;53228;51.380;0.098;2023-11-22T10:00:47;9.40;99.90
66422;DHT22;53228;51.380;0.098;2023-11-22T10:03:15;9.40;99.90
66422;DHT22;53228;51.380;0.098;2023-11-22T10:05:45;8.20;99.90
66422;DHT22;53228;51.380;0.098;2023-11-22T10:08:13;9.40;99.90
66422;DHT22;53228;51.380;0.098;2023-11-22T10:10:42;9.40;99.90
66422;DHT22;53228;51.380;0.098;2023-11-22T10:13:13;9.40;99.90
66422;DHT22;53228;51.380;0.098;2023-11-22T10:15:40;9.40;99.90
66422;DHT22;53228;51.380;0.098;2023-11-22T10:18:08;9.40;99.90
66422;DHT22;53228;51.380;0.098;2023-11-22T10:20:40;9.40;99.90
66422;DHT22;53228;51.380;0.098;2023-11-22T10:23:10;9.40;99.90
66422;DHT22;53228;51.380;0.098;2023-11-22T10:25:50;9.40;99.90
66422;DHT22;53228;51.380;0.098;2023-11-22T10:28:20;9.50;99.90
66422;DHT22;53228;51.380;0.098;2023-11-22T10:30:49;9.50;99.90
66422;DHT22;53228;51.380;0.098;2023-11-22T10:33:18;9.50;99.90
66422;DHT22;53228;51.380;0.098;2023-11-22T10:35:48;9.50;99.90
66422;DHT22;53228;51.380;0.098;2023-11-22T10:38:20;9.50;99.90
66422;DHT22;53228;51.380;0.098;2023-11-22T10:40:48;9.50;99.90
66422;DHT22;53228;51.380;0.098;2023-11-22T10:43:19;9.60;99.90
66422;DHT22;53228;51.380;0.098;2023-11-22T10:45:55;9.60;99.90
66422;DHT22;53228;51.380;0.098;2023-11-22T10:48:27;9.70;99.90
66422;DHT22;53228;51.380;0.098;2023-11-22T10:51:15;9.70;99.90
66422;DHT22;53228;51.380;0.098;2023-11-22T10:53:49;9.80;99.90
66422;DHT22;53228;51.380;0.098;2023-11-22T10:56:19;7.80;99.90
66422;DHT22;53228;51.380;0.098;2023-11-22T11:01:18;9.80;99.90
66422;DHT22;53228;51.380;0.098;2023-11-22T11:03:58;9.80;99.90
66422;DHT22;53228;51.380;0.098;2023-11-22T11:06:32;9.90;99.90
66422;DHT22;53228;51.380;0.098;2023-11-22T11:09:06;10.00;99.90
66422;DHT22;53228;51.380;0.098;2023-11-22T11:11:37;10.00;99.90
66422;DHT22;53228;51.380;0.098;2023-11-22T11:14:08;10.10;99.90
66422;DHT22;53228;51.380;0.098;2023-11-22T11:16:39;10.10;99.90
66422;DHT22;53228;51.380;0.098;2023-11-22T11:19:15;10.10;99.90
66422;DHT22;53228;51.380;0.098;2023-11-22T11:21:45;10.20;99.90
66422;DHT22;53228;51.380;0.098;2023-11-22T11:24:16;10.60;99.90
66422;DHT22;53228;51.380;0.098;2023-11-22T11:26:50;10.20;99.90
66422;DHT22;53228;51.380;0.098;2023-11-22T11:29:32;10.20;99.90
66422;DHT22;53228;51.380;0.098;2023-11-22T11:32:03;10.30;99.90
66422;DHT22;53228;51.380;0.098;2023-11-22T11:34:31;10.30;99.90
66422;DHT22;53228;51.380;0.098;2023-11-22T11:36:59;10.40;99.90
66422;DHT22;53228;51.380;0.098;2023-11-22T11:39:27;10.30;99.90
66422;DHT22;53228;51.380;0.098;2023-11-22T11:42:09;10.40;99.90
66422;DHT22;53228;51.380;0.098;2023-11-22T11:45:25;10.40;99.90
66422;DHT22;53228;51.380;0.098;2023-11-22T11:47:34;10.40;99.90
66422;DHT22;53228;51.380;0.098;2023-11-22T11:50:03;10.50;99.90
66422;DHT22;53228;51.380;0.098;2023-11-22T11:52:31;10.50;99.90
66422;DHT22;53228;51.380;0.098;2023-11-22T11:54:59;11.40;99.90
66422;DHT22;53228;51.380;0.098;2023-11-22T11:57:31;10.60;99.90
66422;DHT22;53228;51.380;0.098;2023-11-22T11:59:59;10.60;99.90
66422;DHT22;53228;51.380;0.098;2023-11-22T12:02:37;10.70;99.90
66422;DHT22;53228;51.380;0.098;2023-11-22T12:05:06;10.70;99.90
66422;DHT22;53228;51.380;0.098;2023-11-22T12:07:37;10.80;99.90
66422;DHT22;53228;51.380;0.098;2023-11-22T12:10:05;10.80;99.90
66422;DHT22;53228;51.380;0.098;2023-11-22T12:12:36;10.90;99.90
66422;DHT22;53228;51.380;0.098;2023-11-22T12:15:04;10.90;99.90
66422;DHT22;53228;51.380;0.098;2023-11-22T12:17:33;10.90;99.90
66422;DHT22;53228;51.380;0.098;2023-11-22T12:20:30;11.00;99.90
66422;DHT22;53228;51.380;0.098;2023-11-22T12:22:59;11.00;99.90
66422;DHT22;53228;51.380;0.098;2023-11-22T12:25:30;11.10;99.90
66422;DHT22;53228;51.380;0.098;2023-11-22T12:27:58;11.10;99.90
66422;DHT22;53228;51.380;0.098;2023-11-22T12:30:33;11.20;99.90
66422;DHT22;53228;51.380;0.098;2023-11-22T12:33:04;11.20;99.90
66422;DHT22;53228;51.380;0.098;2023-11-22T12:35:32;11.30;99.90
66422;DHT22;53228;51.380;0.098;2023-11-22T12:38:09;11.40;99.90
66422;DHT22;53228;51.380;0.098;2023-11-22T12:40:49;11.40;99.90
66422;DHT22;53228;51.380;0.098;2023-11-22T12:43:16;10.90;99.90
66422;DHT22;53228;51.380;0.098;2023-11-22T12:45:44;11.50;99.90
66422;DHT22;53228;51.380;0.098;2023-11-22T12:48:23;11.50;99.90
66422;DHT22;53228;51.380;0.098;2023-11-22T12:50:52;11.50;99.90
66422;DHT22;53228;51.380;0.098;2023-11-22T12:53:21;12.20;99.90
66422;DHT22;53228;51.380;0.098;2023-11-22T12:58:56;11.70;99.90
66422;DHT22;53228;51.380;0.098;2023-11-22T13:01:23;11.70;99.90
66422;DHT22;53228;51.380;0.098;2023-11-22T13:03:51;11.70;99.90
66422;DHT22;53228;51.380;0.098;2023-11-22T13:06:19;11.80;99.90
66422;DHT22;53228;51.380;0.098;2023-11-22T13:08:47;11.80;99.90
66422;DHT22;53228;51.380;0.098;2023-11-22T13:11:15;11.80;99.90
66422;DHT22;53228;51.380;0.098;2023-11-22T13:13:42;11.20;99.90
66422;DHT22;53228;51.380;0.098;2023-11-22T13:16:10;11.80;99.90
66422;DHT22;53228;51.380;0.098;2023-11-22T13:18:37;11.80;99.90
66422;DHT22;53228;51.380;0.098;2023-11-22T13:21:05;11.80;99.90
66422;DHT22;53228;51.380;0.098;2023-11-22T13:23:33;11.80;99.90
66422;DHT22;53228;51.380;0.098;2023-11-22T13:26:01;11.80;99.90
66422;DHT22;53228;51.380;0.098;2023-11-22T13:28:29;11.80;99.90
66422;DHT22;53228;51.380;0.098;2023-11-22T13:30:57;11.80;99.90
66422;DHT22;53228;51.380;0.098;2023-11-22T13:33:24;11.90;99.90
66422;DHT22;53228;51.380;0.098;2023-11-22T13:35:52;11.90;99.90
66422;DHT22;53228;51.380;0.098;2023-11-22T13:38:20;11.90;99.90
66422;DHT22;53228;51.380;0.098;2023-11-22T13:40:47;11.90;99.90
66422;DHT22;53228;51.380;0.098;2023-11-22T13:43:15;11.90;99.90
66422;DHT22;53228;51.380;0.098;2023-11-22T13:45:44;12.00;99.90
66422;DHT22;53228;51.380;0.098;2023-11-22T13:48:13;11.90;99.90
66422;DHT22;53228;51.380;0.098;2023-11-22T13:50:40;11.90;99.90
66422;DHT22;53228;51.380;0.098;2023-11-22T13:53:08;12.00;99.90
66422;DHT22;53228;51.380;0.098;2023-11-22T13:55:38;12.00;99.90
66422;DHT22;53228;51.380;0.098;2023-11-22T13:58:06;12.00;99.90
66422;DHT22;53228;51.380;0.098;2023-11-22T14:00:35;10.90;99.90
66422;DHT22;53228;51.380;0.098;2023-11-22T14:03:04;12.00;99.90
66422;DHT22;53228;51.380;0.098;2023-11-22T14:05:37;12.00;99.90
66422;DHT22;53228;51.380;0.098;2023-11-22T14:08:06;12.00;99.90
66422;DHT22;53228;51.380;0.098;2023-11-22T14:10:34;12.00;99.90
66422;DHT22;53228;51.380;0.098;2023-11-22T14:13:02;12.00;99.90
66422;DHT22;53228;51.380;0.098;2023-11-22T14:15:31;12.00;99.90
66422;DHT22;53228;51.380;0.098;2023-11-22T14:17:59;12.00;99.90
66422;DHT22;53228;51.380;0.098;2023-11-22T14:20:27;12.00;99.90
66422;DHT22;53228;51.380;0.098;2023-11-22T14:22:57;12.00;99.90
66422;DHT22;53228;51.380;0.098;2023-11-22T14:25:25;12.00;99.90
66422;DHT22;53228;51.380;0.098;2023-11-22T14:27:54;12.00;99.90
66422;DHT22;53228;51.380;0.098;2023-11-22T14:30:23;12.00;99.90
66422;DHT22;53228;51.380;0.098;2023-11-22T14:32:52;12.00;99.90
66422;DHT22;53228;51.380;0.098;2023-11-22T14:35:20;12.00;99.90
66422;DHT22;53228;51.380;0.098;2023-11-22T14:37:48;12.00;99.90
66422;DHT22;53228;51.380;0.098;2023-11-22T14:40:16;12.00;99.90
66422;DHT22;53228;51.380;0.098;2023-11-22T14:42:47;12.00;99.90
66422;DHT22;53228;51.380;0.098;2023-11-22T14:45:20;12.00;99.90
66422;DHT22;53228;51.380;0.098;2023-11-22T14:47:48;12.00;99.90
66422;DHT22;53228;51.380;0.098;2023-11-22T14:50:18;12.00;99.90
66422;DHT22;53228;51.380;0.098;2023-11-22T14:52:47;12.00;99.90
66422;DHT22;53228;51.380;0.098;2023-11-22T14:55:18;11.90;99.90
66422;DHT22;53228;51.380;0.098;2023-11-22T14:57:50;11.90;99.90
66422;DHT22;53228;51.380;0.098;2023-11-22T15:00:18;11.90;99.90
66422;DHT22;53228;51.380;0.098;2023-11-22T15:02:45;11.80;99.90
66422;DHT22;53228;51.380;0.098;2023-11-22T15:05:15;11.80;99.90
66422;DHT22;53228;51.380;0.098;2023-11-22T15:07:43;11.80;99.90
66422;DHT22;53228;51.380;0.098;2023-11-22T15:10:11;11.70;99.90
66422;DHT22;53228;51.380;0.098;2023-11-22T15:12:39;11.70;99.90
66422;DHT22;53228;51.380;0.098;2023-11-22T15:15:08;11.70;99.90
66422;DHT22;53228;51.380;0.098;2023-11-22T15:17:36;11.60;99.90
66422;DHT22;53228;51.380;0.098;2023-11-22T15:20:06;11.60;99.90
66422;DHT22;53228;51.380;0.098;2023-11-22T15:22:37;11.60;99.90
66422;DHT22;53228;51.380;0.098;2023-11-22T15:25:06;11.60;99.90
66422;DHT22;53228;51.380;0.098;2023-11-22T15:27:33;11.50;99.90
66422;DHT22;53228;51.380;0.098;2023-11-22T15:30:02;11.50;99.90
66422;DHT22;53228;51.380;0.098;2023-11-22T15:32:31;11.40;99.90
66422;DHT22;53228;51.380;0.098;2023-11-22T15:35:00;11.40;99.90
66422;DHT22;53228;51.380;0.098;2023-11-22T15:37:27;11.30;99.90
66422;DHT22;53228;51.380;0.098;2023-11-22T15:39:56;11.30;99.90
66422;DHT22;53228;51.380;0.098;2023-11-22T15:42:24;11.30;99.90
66422;DHT22;53228;51.380;0.098;2023-11-22T15:44:52;11.30;99.90
66422;DHT22;53228;51.380;0.098;2023-11-22T15:47:20;11.10;99.90
66422;DHT22;53228;51.380;0.098;2023-11-22T15:49:47;11.20;99.90
66422;DHT22;53228;51.380;0.098;2023-11-22T15:52:15;11.30;99.90
66422;DHT22;53228;51.380;0.098;2023-11-22T15:54:43;11.30;99.90
66422;DHT22;53228;51.380;0.098;2023-11-22T15:57:10;11.30;99.90
66422;DHT22;53228;51.380;0.098;2023-11-22T15:59:38;11.30;99.90
66422;DHT22;53228;51.380;0.098;2023-11-22T16:02:06;11.20;99.90
66422;DHT22;53228;51.380;0.098;2023-11-22T16:04:34;11.20;99.90
66422;DHT22;53228;51.380;0.098;2023-11-22T16:07:02;11.10;99.90
66422;DHT22;53228;51.380;0.098;2023-11-22T16:09:30;11.00;99.90